Time;durP1;ratioP1;P1;durP2;ratioP2;P2;SDS_P1;SDS_P2;PMS_P1;PMS_P2;Temp;Humidity;BMP_temperature;BMP_pressure;BME280_temperature;BME280_humidity;BME280_pressure;Samples;Min_cycle;Max_cycle;Signal;HPM_P1;HPM_P2
2023/11/19 00:00:33;;;;;;;4.80;4.40;;;7.90;1.00;;;;;;6215982;23;20165;-51
2023/11/19 00:02:59;;;;;;;4.73;4.30;;;7.90;1.00;;;;;;6216830;23;20797;-57
2023/11/19 00:05:24;;;;;;;7.30;4.27;;;7.90;1.00;;;;;;6217130;23;20181;-54
2023/11/19 00:07:50;;;;;;;4.53;3.80;;;8.00;1.00;;;;;;6191390;23;20150;-56
2023/11/19 00:10:20;;;;;;;4.40;4.00;;;8.00;1.00;;;;;;6216854;23;20134;-52
2023/11/19 00:12:47;;;;;;;4.50;4.10;;;8.10;1.00;;;;;;6217008;23;20126;-52
2023/11/19 00:15:13;;;;;;;3.93;3.40;;;8.00;1.00;;;;;;6218009;23;20465;-51
2023/11/19 00:17:47;;;;;;;5.10;4.60;;;8.10;1.00;;;;;;6217182;23;20429;-53
2023/11/19 00:20:14;;;;;;;5.10;4.30;;;8.00;1.00;;;;;;6216637;23;20412;-57
2023/11/19 00:22:41;;;;;;;4.97;4.40;;;8.00;1.00;;;;;;6216425;23;20454;-56
2023/11/19 00:25:07;;;;;;;4.97;4.47;;;8.10;1.00;;;;;;6215616;23;20413;-56
2023/11/19 00:27:33;;;;;;;4.07;3.37;;;8.00;1.00;;;;;;6215564;23;20392;-52
2023/11/19 00:29:59;;;;;;;4.40;4.00;;;8.10;1.00;;;;;;6215125;23;20403;-55
2023/11/19 00:32:24;;;;;;;4.80;4.33;;;8.10;1.00;;;;;;6215023;23;20176;-56
2023/11/19 00:34:50;;;;;;;4.40;4.00;;;8.10;1.00;;;;;;6215599;23;20216;-55
2023/11/19 00:37:15;;;;;;;4.30;3.60;;;8.10;1.00;;;;;;6215393;23;20131;-56
2023/11/19 00:39:42;;;;;;;4.70;4.30;;;8.20;1.00;;;;;;6216346;23;20177;-55
2023/11/19 00:42:07;;;;;;;3.17;2.87;;;8.20;1.00;;;;;;6190364;23;20224;-56
2023/11/19 00:44:33;;;;;;;3.70;3.40;;;8.20;1.00;;;;;;6217532;23;20843;-54
2023/11/19 00:47:00;;;;;;;4.77;3.03;;;8.20;1.00;;;;;;6215892;23;20581;-55
2023/11/19 00:49:25;;;;;;;3.50;2.63;;;8.20;1.00;;;;;;6216415;23;20150;-56
2023/11/19 00:51:51;;;;;;;3.20;2.00;;;8.30;1.00;;;;;;6216404;23;20833;-57
2023/11/19 00:54:17;;;;;;;2.60;2.40;;;8.40;1.00;;;;;;6215579;23;20150;-57
2023/11/19 00:56:42;;;;;;;2.83;2.00;;;8.50;1.00;;;;;;6215198;23;20154;-55
2023/11/19 00:59:08;;;;;;;2.60;2.40;;;8.50;1.00;;;;;;6214598;23;20861;-56
2023/11/19 01:01:33;;;;;;;2.40;1.70;;;8.60;1.00;;;;;;6214877;23;20200;-53
2023/11/19 01:03:59;;;;;;;2.40;1.77;;;8.70;1.00;;;;;;6215524;23;20205;-56
2023/11/19 01:06:31;;;;;;;2.00;1.80;;;8.70;1.00;;;;;;6215675;23;20162;-54
2023/11/19 01:08:58;;;;;;;2.60;1.80;;;8.80;1.00;;;;;;6216616;23;20149;-52
2023/11/19 01:11:24;;;;;;;2.23;1.43;;;8.80;1.00;;;;;;6217710;23;20699;-56
2023/11/19 01:13:50;;;;;;;2.90;1.63;;;8.80;1.00;;;;;;6217058;23;20467;-53
2023/11/19 01:16:16;;;;;;;2.60;2.40;;;8.80;1.00;;;;;;6190510;23;20689;-54
2023/11/19 01:18:42;;;;;;;2.37;1.37;;;8.90;1.00;;;;;;6216031;23;20419;-56
2023/11/19 01:21:08;;;;;;;2.73;2.20;;;8.90;1.00;;;;;;6215202;23;20718;-56
2023/11/19 01:23:34;;;;;;;2.30;1.60;;;8.90;1.00;;;;;;6215261;23;20299;-55
2023/11/19 01:25:59;;;;;;;2.73;1.80;;;9.00;1.00;;;;;;6214033;23;20439;-55
2023/11/19 01:28:25;;;;;;;3.33;1.60;;;9.00;1.00;;;;;;6214561;23;20424;-55
2023/11/19 01:30:51;;;;;;;2.67;1.83;;;9.00;1.00;;;;;;6214483;23;20233;-55
2023/11/19 01:33:16;;;;;;;3.27;2.33;;;9.00;1.00;;;;;;6188786;23;20243;-56
2023/11/19 01:35:42;;;;;;;3.30;2.20;;;9.00;1.00;;;;;;6216666;23;20420;-55
2023/11/19 01:38:08;;;;;;;1.73;1.63;;;9.00;1.00;;;;;;6216940;23;20161;-52
2023/11/19 01:40:36;;;;;;;2.87;1.93;;;9.00;1.00;;;;;;6217481;23;20311;-55
2023/11/19 01:43:02;;;;;;;2.17;1.80;;;9.00;1.00;;;;;;6217614;23;20353;-53
2023/11/19 01:45:32;;;;;;;2.13;1.80;;;9.00;1.00;;;;;;6216797;23;20455;-54
2023/11/19 01:47:59;;;;;;;2.03;1.67;;;9.10;1.00;;;;;;6190274;23;20679;-54
2023/11/19 01:50:25;;;;;;;1.80;1.30;;;9.10;1.00;;;;;;6190564;23;20483;-54
2023/11/19 01:52:53;;;;;;;2.27;1.30;;;9.20;1.00;;;;;;6215967;23;20428;-53
2023/11/19 01:55:20;;;;;;;1.60;1.20;;;9.20;1.00;;;;;;6215807;23;20391;-56
2023/11/19 01:57:46;;;;;;;1.33;0.80;;;9.20;1.00;;;;;;6190389;23;20444;-56
2023/11/19 02:00:13;;;;;;;1.10;0.77;;;9.20;1.00;;;;;;6214559;23;20404;-54
2023/11/19 02:02:39;;;;;;;1.10;0.70;;;9.30;1.00;;;;;;6216342;23;20388;-56
2023/11/19 02:05:06;;;;;;;1.93;0.67;;;9.30;1.00;;;;;;6189570;23;20479;-57
2023/11/19 02:07:32;;;;;;;2.90;0.63;;;9.40;1.00;;;;;;6217654;23;20426;-53
2023/11/19 02:10:00;;;;;;;0.97;0.53;;;9.50;1.00;;;;;;6216914;23;20776;-55
2023/11/19 02:12:28;;;;;;;0.80;0.50;;;9.50;1.00;;;;;;6217014;23;20768;-53
2023/11/19 02:14:54;;;;;;;0.80;0.40;;;9.50;1.00;;;;;;6218817;23;20377;-53
2023/11/19 02:17:40;;;;;;;1.03;0.47;;;9.60;1.00;;;;;;6217610;23;20380;-54
2023/11/19 02:20:09;;;;;;;1.10;0.60;;;9.60;1.00;;;;;;6216365;23;20456;-53
2023/11/19 02:22:34;;;;;;;0.90;0.57;;;9.60;1.00;;;;;;6215114;23;20471;-55
2023/11/19 02:25:12;;;;;;;0.90;0.50;;;9.60;1.00;;;;;;6216473;23;20353;-56
2023/11/19 02:27:55;;;;;;;1.40;0.47;;;9.70;1.00;;;;;;6217383;23;20170;-55
2023/11/19 02:30:26;;;;;;;1.10;0.60;;;9.70;1.00;;;;;;6190579;23;20480;-54
2023/11/19 02:32:58;;;;;;;1.00;0.60;;;9.70;1.00;;;;;;6216673;23;20772;-56
2023/11/19 02:35:28;;;;;;;0.90;0.50;;;9.70;1.00;;;;;;6216188;23;20396;-54
2023/11/19 02:37:57;;;;;;;0.80;0.50;;;9.80;1.00;;;;;;6215969;23;20484;-53
2023/11/19 02:40:24;;;;;;;1.20;0.90;;;9.80;1.00;;;;;;6216174;23;20650;-57
2023/11/19 02:42:50;;;;;;;1.20;0.53;;;9.80;1.00;;;;;;6216683;23;20361;-56
2023/11/19 02:45:16;;;;;;;1.10;0.63;;;9.80;1.00;;;;;;6216545;23;20539;-56
2023/11/19 02:47:42;;;;;;;0.83;0.57;;;9.80;1.00;;;;;;6216259;23;20393;-54
2023/11/19 02:50:14;;;;;;;0.80;0.50;;;9.70;1.00;;;;;;6216344;23;20177;-53
2023/11/19 02:52:45;;;;;;;1.33;0.60;;;9.80;1.00;;;;;;6216892;23;20467;-56
2023/11/19 02:55:14;;;;;;;0.70;0.40;;;9.80;1.00;;;;;;6191337;23;20632;-55
2023/11/19 02:57:45;;;;;;;1.00;0.50;;;9.80;1.00;;;;;;6216564;23;20353;-52
2023/11/19 03:00:13;;;;;;;1.10;0.60;;;9.80;1.00;;;;;;6216883;23;20391;-54
2023/11/19 03:02:44;;;;;;;2.20;0.67;;;9.80;1.00;;;;;;6218862;23;20396;-56
2023/11/19 03:05:11;;;;;;;1.27;0.80;;;9.90;1.00;;;;;;6218079;23;20646;-54
2023/11/19 03:07:37;;;;;;;0.90;0.50;;;9.80;1.00;;;;;;6217975;23;20756;-55
2023/11/19 03:10:05;;;;;;;0.93;0.60;;;9.90;1.00;;;;;;6217730;23;20357;-56
2023/11/19 03:12:31;;;;;;;0.77;0.40;;;9.80;1.00;;;;;;6218141;23;20126;-56
2023/11/19 03:14:57;;;;;;;1.10;0.70;;;9.90;1.00;;;;;;6218142;23;20388;-51
2023/11/19 03:17:24;;;;;;;0.70;0.40;;;9.90;1.00;;;;;;6217985;23;20385;-56
2023/11/19 03:20:09;;;;;;;0.80;0.50;;;9.90;1.00;;;;;;6218084;23;20150;-53
2023/11/19 03:22:38;;;;;;;5.10;0.53;;;10.00;1.00;;;;;;6217329;23;20444;-53
2023/11/19 03:25:04;;;;;;;1.63;0.50;;;10.00;1.00;;;;;;6217628;23;20389;-54
2023/11/19 03:27:29;;;;;;;0.87;0.53;;;10.00;1.00;;;;;;6217507;23;20385;-53
2023/11/19 03:29:55;;;;;;;0.90;0.53;;;10.00;1.00;;;;;;6218119;23;20350;-53
2023/11/19 03:32:20;;;;;;;1.50;0.97;;;9.90;1.00;;;;;;6218575;23;20185;-53
2023/11/19 03:34:46;;;;;;;0.90;0.60;;;9.90;1.00;;;;;;6218454;23;20216;-53
2023/11/19 03:37:15;;;;;;;1.07;0.70;;;9.90;1.00;;;;;;6217219;23;20439;-53
2023/11/19 03:39:41;;;;;;;1.00;0.60;;;9.90;1.00;;;;;;6217363;23;20240;-52
2023/11/19 03:42:07;;;;;;;0.70;0.40;;;9.90;1.00;;;;;;6216902;23;20396;-55
2023/11/19 03:44:33;;;;;;;1.87;0.70;;;9.90;1.00;;;;;;6217352;23;20133;-54
2023/11/19 03:46:58;;;;;;;0.87;0.40;;;9.90;1.00;;;;;;6218554;23;20220;-56
2023/11/19 03:49:24;;;;;;;0.80;0.53;;;9.90;1.00;;;;;;6217644;23;20549;-57
2023/11/19 03:51:49;;;;;;;0.93;0.50;;;10.00;1.00;;;;;;6218041;23;20158;-52
2023/11/19 03:54:15;;;;;;;0.80;0.40;;;10.00;1.00;;;;;;6217125;23;20131;-56
2023/11/19 03:56:42;;;;;;;0.90;0.57;;;10.00;1.00;;;;;;6216997;23;20161;-54
2023/11/19 03:59:09;;;;;;;0.90;0.50;;;10.00;1.00;;;;;;6191233;23;20169;-52
2023/11/19 04:01:37;;;;;;;1.47;0.57;;;10.00;1.00;;;;;;6217483;23;20385;-54
2023/11/19 04:04:03;;;;;;;0.90;0.40;;;10.00;1.00;;;;;;6217667;23;20649;-53
2023/11/19 04:06:28;;;;;;;0.90;0.37;;;10.00;1.00;;;;;;6217523;23;20436;-55
2023/11/19 04:08:54;;;;;;;1.17;0.63;;;10.10;1.00;;;;;;6217363;23;20361;-54
2023/11/19 04:11:19;;;;;;;0.90;0.50;;;10.10;1.00;;;;;;6217962;23;20510;-54
2023/11/19 04:13:45;;;;;;;0.70;0.40;;;10.20;1.00;;;;;;6216938;23;20557;-53
2023/11/19 04:16:11;;;;;;;0.90;0.50;;;10.20;1.00;;;;;;6217758;23;20288;-54
2023/11/19 04:18:36;;;;;;;0.70;0.30;;;10.20;1.00;;;;;;6191166;23;20162;-53
2023/11/19 04:21:02;;;;;;;0.90;0.30;;;10.20;1.00;;;;;;6217066;23;20134;-54
2023/11/19 04:23:27;;;;;;;0.80;0.40;;;10.20;1.00;;;;;;6217508;23;20141;-54
2023/11/19 04:25:53;;;;;;;1.40;0.30;;;10.20;1.00;;;;;;6216476;23;20243;-52
2023/11/19 04:28:18;;;;;;;0.80;0.30;;;10.20;1.00;;;;;;6217383;23;20162;-55
2023/11/19 04:30:44;;;;;;;1.00;0.60;;;10.30;1.00;;;;;;6217428;23;20700;-56
2023/11/19 04:33:10;;;;;;;0.90;0.50;;;10.30;1.00;;;;;;6217050;23;20395;-54
2023/11/19 04:35:35;;;;;;;0.90;0.57;;;10.30;1.00;;;;;;6216381;23;20220;-54
2023/11/19 04:38:01;;;;;;;1.50;0.70;;;10.30;1.00;;;;;;6215656;23;20577;-56
2023/11/19 04:40:26;;;;;;;0.93;0.60;;;10.30;1.00;;;;;;6216037;23;20154;-55
2023/11/19 04:42:52;;;;;;;1.13;0.60;;;10.30;1.00;;;;;;6214750;23;20166;-53
2023/11/19 04:45:17;;;;;;;0.80;0.40;;;10.30;1.00;;;;;;6214350;23;20188;-54
2023/11/19 04:47:44;;;;;;;0.87;0.40;;;10.40;1.00;;;;;;6216605;23;20131;-52
2023/11/19 04:50:10;;;;;;;1.53;0.60;;;10.40;1.00;;;;;;6216547;23;20157;-55
2023/11/19 04:52:40;;;;;;;0.80;0.40;;;10.40;1.00;;;;;;6214888;23;20376;-56
2023/11/19 04:55:06;;;;;;;0.70;0.40;;;10.40;1.00;;;;;;6215422;23;20388;-54
2023/11/19 04:57:32;;;;;;;0.80;0.40;;;10.40;1.00;;;;;;6216708;23;20377;-53
2023/11/19 04:59:58;;;;;;;0.90;0.50;;;10.40;1.00;;;;;;6215623;23;20353;-56
2023/11/19 05:02:23;;;;;;;0.93;0.60;;;10.30;1.00;;;;;;6214932;23;20408;-55
2023/11/19 05:04:49;;;;;;;1.77;0.50;;;10.30;1.00;;;;;;6215596;23;20158;-53
2023/11/19 05:07:15;;;;;;;0.80;0.50;;;10.30;1.00;;;;;;6215795;23;20182;-56
2023/11/19 05:09:40;;;;;;;1.30;0.50;;;10.30;1.00;;;;;;6217808;23;20196;-56
2023/11/19 05:12:09;;;;;;;0.80;0.40;;;10.30;1.00;;;;;;6217432;23;20465;-53
2023/11/19 05:14:35;;;;;;;0.77;0.40;;;10.20;1.00;;;;;;6218040;23;20126;-55
2023/11/19 05:17:01;;;;;;;0.93;0.63;;;10.20;1.00;;;;;;6219806;23;20385;-55
2023/11/19 05:19:26;;;;;;;0.80;0.47;;;10.30;1.00;;;;;;6218685;23;20213;-52
2023/11/19 05:21:52;;;;;;;1.20;0.60;;;10.30;1.00;;;;;;6218316;23;20198;-54
2023/11/19 05:24:18;;;;;;;1.00;0.70;;;10.30;1.00;;;;;;6217828;23;20158;-54
2023/11/19 05:26:43;;;;;;;1.00;0.50;;;10.30;1.00;;;;;;6217975;23;20162;-55
2023/11/19 05:29:09;;;;;;;1.10;0.60;;;10.40;1.00;;;;;;6219366;23;20641;-57
2023/11/19 05:31:35;;;;;;;2.87;0.70;;;10.70;1.00;;;;;;6217513;23;20506;-55
2023/11/19 05:34:00;;;;;;;2.57;0.60;;;10.70;1.00;;;;;;6218596;23;20153;-54
2023/11/19 05:36:28;;;;;;;0.80;0.50;;;10.80;1.00;;;;;;6217129;23;20181;-56
2023/11/19 05:38:54;;;;;;;0.90;0.50;;;10.90;1.00;;;;;;6218154;23;20155;-57
2023/11/19 05:41:19;;;;;;;3.23;0.90;;;10.90;1.00;;;;;;6218483;23;20400;-54
2023/11/19 05:43:46;;;;;;;0.70;0.40;;;10.90;1.00;;;;;;6218675;23;20185;-57
2023/11/19 05:46:13;;;;;;;0.90;0.50;;;10.80;1.00;;;;;;6217492;23;20185;-56
2023/11/19 05:48:39;;;;;;;0.70;0.40;;;10.80;1.00;;;;;;6218040;23;20377;-53
2023/11/19 05:51:05;;;;;;;1.00;0.50;;;10.60;1.00;;;;;;6218066;23;20410;-54
2023/11/19 05:53:31;;;;;;;0.80;0.50;;;10.50;1.00;;;;;;6217965;23;20353;-55
2023/11/19 05:55:57;;;;;;;0.80;0.50;;;10.50;1.00;;;;;;6217552;23;20376;-56
2023/11/19 05:58:28;;;;;;;0.80;0.43;;;10.50;1.00;;;;;;6191881;23;20170;-55
2023/11/19 06:00:55;;;;;;;1.00;0.60;;;10.50;1.00;;;;;;6217952;23;20381;-56
2023/11/19 06:03:21;;;;;;;1.57;0.50;;;10.40;1.00;;;;;;6219175;23;20691;-54
2023/11/19 06:05:48;;;;;;;0.90;0.50;;;10.40;1.00;;;;;;6218596;23;20416;-57
2023/11/19 06:08:14;;;;;;;0.90;0.50;;;10.40;1.00;;;;;;6218396;23;20377;-53
2023/11/19 06:10:45;;;;;;;0.90;0.50;;;10.40;1.00;;;;;;6219006;23;20381;-58
2023/11/19 06:13:11;;;;;;;1.30;0.53;;;10.40;1.00;;;;;;6219026;23;20381;-54
2023/11/19 06:15:37;;;;;;;1.00;0.70;;;10.40;1.00;;;;;;6191450;23;20404;-54
2023/11/19 06:18:03;;;;;;;1.03;0.63;;;10.40;1.00;;;;;;6218251;23;20138;-57
2023/11/19 06:20:29;;;;;;;1.37;0.80;;;10.40;1.00;;;;;;6191523;23;20233;-55
2023/11/19 06:22:56;;;;;;;1.00;0.50;;;10.40;1.00;;;;;;6191315;23;20445;-56
2023/11/19 06:25:23;;;;;;;1.83;0.60;;;10.50;1.00;;;;;;6217889;23;20852;-58
2023/11/19 06:27:49;;;;;;;1.10;0.57;;;10.40;1.00;;;;;;6218826;23;20389;-57
2023/11/19 06:30:15;;;;;;;0.90;0.57;;;10.40;1.00;;;;;;6218293;23;20417;-55
2023/11/19 06:32:41;;;;;;;0.93;0.53;;;10.40;1.00;;;;;;6218194;23;20368;-57
2023/11/19 06:35:07;;;;;;;0.90;0.60;;;10.40;1.00;;;;;;6219069;23;20222;-56
2023/11/19 06:37:32;;;;;;;1.00;0.70;;;10.40;1.00;;;;;;6218556;23;20237;-56
2023/11/19 06:39:59;;;;;;;1.00;0.60;;;10.40;1.00;;;;;;6218417;23;20436;-60
2023/11/19 06:42:24;;;;;;;1.83;0.80;;;10.30;1.00;;;;;;6215354;23;20670;-57
2023/11/19 06:44:51;;;;;;;0.87;0.50;;;10.40;1.00;;;;;;6216418;23;20373;-53
2023/11/19 06:47:17;;;;;;;2.80;0.53;;;10.40;1.00;;;;;;6217288;23;20557;-56
2023/11/19 06:49:44;;;;;;;1.10;0.50;;;10.40;1.00;;;;;;6217046;23;20396;-53
2023/11/19 06:52:09;;;;;;;1.30;0.50;;;10.40;1.00;;;;;;6216410;23;20225;-57
2023/11/19 06:54:35;;;;;;;0.97;0.53;;;10.40;1.00;;;;;;6216439;23;20381;-56
2023/11/19 06:57:01;;;;;;;0.87;0.50;;;10.40;1.00;;;;;;6215492;23;20153;-56
2023/11/19 06:59:26;;;;;;;1.00;0.63;;;10.40;1.00;;;;;;6216853;23;20138;-58
2023/11/19 07:01:52;;;;;;;1.23;0.60;;;10.50;1.00;;;;;;6216208;23;20426;-55
2023/11/19 07:04:17;;;;;;;1.10;0.80;;;10.50;1.00;;;;;;6214620;23;20158;-54
2023/11/19 07:06:43;;;;;;;1.00;0.70;;;10.50;1.00;;;;;;6215027;23;20722;-56
2023/11/19 07:09:09;;;;;;;0.93;0.70;;;10.60;1.00;;;;;;6214673;23;20135;-56
2023/11/19 07:11:39;;;;;;;1.57;0.80;;;10.60;1.00;;;;;;6214491;23;20157;-55
2023/11/19 07:14:06;;;;;;;1.13;0.70;;;10.60;1.00;;;;;;6215336;23;20381;-55
2023/11/19 07:16:32;;;;;;;0.97;0.70;;;10.60;1.00;;;;;;6217077;23;20388;-57
2023/11/19 07:18:59;;;;;;;2.20;0.77;;;10.70;1.00;;;;;;6217122;23;20439;-56
2023/11/19 07:21:25;;;;;;;0.90;0.70;;;10.70;1.00;;;;;;6216771;23;20435;-53
2023/11/19 07:23:51;;;;;;;1.00;0.70;;;10.60;1.00;;;;;;6217659;23;20357;-56
2023/11/19 07:26:17;;;;;;;1.20;0.63;;;10.70;1.00;;;;;;6217943;23;20760;-55
2023/11/19 07:28:45;;;;;;;2.23;0.77;;;10.70;1.00;;;;;;6217962;23;20479;-55
2023/11/19 07:31:10;;;;;;;0.80;0.60;;;10.70;1.00;;;;;;6216740;23;20150;-56
2023/11/19 07:33:36;;;;;;;1.00;0.60;;;10.70;1.00;;;;;;6217076;23;20625;-57
2023/11/19 07:36:02;;;;;;;2.60;0.90;;;10.80;1.00;;;;;;6217007;23;20165;-54
2023/11/19 07:38:27;;;;;;;1.20;0.87;;;10.80;1.00;;;;;;6191747;23;20145;-57
2023/11/19 07:40:53;;;;;;;1.03;0.70;;;10.80;1.00;;;;;;6190870;23;20162;-56
2023/11/19 07:43:18;;;;;;;1.50;0.60;;;10.80;1.00;;;;;;6217051;23;20466;-55
2023/11/19 07:45:45;;;;;;;1.00;0.63;;;10.80;1.00;;;;;;6218292;23;20177;-54
2023/11/19 07:48:13;;;;;;;1.03;0.50;;;10.80;1.00;;;;;;6217112;23;20455;-56
2023/11/19 07:50:40;;;;;;;0.80;0.53;;;10.80;1.00;;;;;;6217708;23;20360;-56
2023/11/19 07:53:07;;;;;;;1.00;0.70;;;10.80;1.00;;;;;;6218089;23;20468;-56
2023/11/19 07:55:33;;;;;;;1.43;0.77;;;10.90;1.00;;;;;;6218262;23;20479;-55
2023/11/19 07:57:58;;;;;;;1.00;0.50;;;10.90;1.00;;;;;;6216648;23;20407;-56
2023/11/19 08:00:24;;;;;;;0.80;0.50;;;10.90;1.00;;;;;;6166263;23;20696;-53
2023/11/19 08:02:49;;;;;;;1.10;0.60;;;10.90;1.00;;;;;;6216397;23;20505;-53
2023/11/19 08:05:15;;;;;;;1.10;0.70;;;10.90;1.00;;;;;;6189393;23;20228;-54
2023/11/19 08:07:41;;;;;;;1.10;0.77;;;10.90;1.00;;;;;;6216973;23;20157;-56
2023/11/19 08:10:09;;;;;;;1.30;0.63;;;10.90;1.00;;;;;;6189159;23;20166;-56
2023/11/19 08:12:35;;;;;;;1.10;0.70;;;10.90;1.00;;;;;;6215084;23;20150;-56
2023/11/19 08:15:02;;;;;;;1.10;0.63;;;11.00;1.00;;;;;;6214055;23;20365;-55
2023/11/19 08:17:28;;;;;;;1.17;0.70;;;11.00;1.00;;;;;;6214634;23;20361;-54
2023/11/19 08:19:53;;;;;;;2.80;1.13;;;11.10;1.00;;;;;;6215806;23;20400;-55
2023/11/19 08:22:19;;;;;;;1.00;0.70;;;11.10;1.00;;;;;;6213613;23;20208;-56
2023/11/19 08:24:44;;;;;;;1.07;0.90;;;11.20;1.00;;;;;;6213659;23;20502;-56
2023/11/19 08:27:10;;;;;;;1.40;0.90;;;11.20;1.00;;;;;;6215140;23;20276;-55
2023/11/19 08:29:35;;;;;;;1.20;0.80;;;11.30;1.00;;;;;;6215144;23;20209;-55
2023/11/19 08:32:03;;;;;;;1.67;0.70;;;11.30;1.00;;;;;;6214356;23;20154;-54
2023/11/19 08:34:29;;;;;;;1.57;0.90;;;11.40;1.00;;;;;;6214762;23;20205;-53
2023/11/19 08:36:55;;;;;;;1.00;0.60;;;11.60;1.00;;;;;;6213945;23;20450;-55
2023/11/19 08:39:22;;;;;;;1.20;0.50;;;12.00;1.00;;;;;;6214743;23;20389;-57
2023/11/19 08:41:48;;;;;;;1.10;0.63;;;12.40;1.00;;;;;;6187367;23;20515;-55
2023/11/19 08:44:14;;;;;;;1.50;0.80;;;12.80;99.90;;;;;;6214566;23;20417;-55
2023/11/19 08:46:47;;;;;;;1.47;0.60;;;12.80;99.90;;;;;;6187821;23;20244;-57
2023/11/19 08:49:12;;;;;;;0.80;0.50;;;12.80;99.90;;;;;;6214449;23;20436;-55
2023/11/19 08:51:38;;;;;;;2.90;0.70;;;12.50;99.90;;;;;;6214748;23;20701;-55
2023/11/19 08:54:04;;;;;;;1.77;0.60;;;13.00;99.90;;;;;;6187580;23;20249;-58
2023/11/19 08:56:35;;;;;;;1.33;0.50;;;13.60;99.90;;;;;;6190116;23;20170;-57
2023/11/19 08:59:01;;;;;;;1.87;0.70;;;14.10;1.00;;;;;;6215567;23;20446;-56
2023/11/19 09:01:26;;;;;;;1.07;0.50;;;14.30;1.00;;;;;;6214033;23;20891;-55
2023/11/19 09:03:52;;;;;;;1.30;0.80;;;14.80;99.90;;;;;;6215368;23;20426;-57
2023/11/19 09:06:18;;;;;;;1.37;0.87;;;15.30;1.00;;;;;;6213214;23;20182;-56
2023/11/19 09:08:43;;;;;;;2.13;0.63;;;15.00;1.00;;;;;;6187739;23;20142;-60
2023/11/19 09:11:09;;;;;;;1.40;0.80;;;14.60;1.00;;;;;;6213664;23;20238;-57
2023/11/19 09:13:35;;;;;;;2.07;0.87;;;14.60;40.10;;;;;;6214068;23;20150;-54
2023/11/19 09:16:04;;;;;;;1.23;0.80;;;14.60;99.90;;;;;;6214399;23;20533;-57
2023/11/19 09:18:30;;;;;;;1.07;0.70;;;14.80;1.00;;;;;;6212438;23;20812;-57
2023/11/19 09:20:56;;;;;;;1.20;0.70;;;15.40;1.00;;;;;;6214292;23;20349;-57
2023/11/19 09:23:21;;;;;;;1.40;0.60;;;16.00;99.90;;;;;;6214036;23;20442;-58
2023/11/19 09:25:47;;;;;;;2.77;0.87;;;15.90;99.90;;;;;;6214083;23;20190;-56
2023/11/19 09:28:14;;;;;;;1.20;0.80;;;15.10;1.00;;;;;;6214106;23;20209;-58
2023/11/19 09:30:40;;;;;;;1.00;0.50;;;14.80;1.00;;;;;;6215422;23;20491;-58
2023/11/19 09:33:05;;;;;;;1.50;0.83;;;14.90;99.90;;;;;;6214300;23;20364;-57
2023/11/19 09:35:31;;;;;;;1.57;0.60;;;15.80;99.90;;;;;;6214458;23;20452;-57
2023/11/19 09:37:59;;;;;;;1.23;0.70;;;16.50;99.90;;;;;;6161953;23;20150;-56
2023/11/19 09:40:24;;;;;;;1.30;0.80;;;16.80;99.90;;;;;;6214356;23;20567;-55
2023/11/19 09:42:50;;;;;;;1.70;0.93;;;16.40;1.00;;;;;;6214925;23;20471;-58
2023/11/19 09:45:17;;;;;;;9.47;8.53;;;15.80;99.90;;;;;;6213831;23;20147;-58
2023/11/19 09:47:45;;;;;;;2.30;1.27;;;15.40;1.00;;;;;;6214199;23;20134;-56
2023/11/19 09:50:20;;;;;;;1.40;1.03;;;14.80;99.90;;;;;;6213058;23;20823;-56
2023/11/19 09:52:47;;;;;;;2.40;1.50;;;14.60;1.00;;;;;;6212671;23;20503;-57
2023/11/19 09:55:13;;;;;;;3.23;0.90;;;15.10;1.00;;;;;;6215482;23;20495;-58
2023/11/19 09:57:40;;;;;;;2.53;1.80;;;16.30;99.90;;;;;;6215959;23;20381;-57
2023/11/19 10:00:07;;;;;;;2.47;0.90;;;16.70;1.00;;;;;;6213917;23;20353;-58
2023/11/19 10:02:37;;;;;;;1.60;1.10;;;16.70;1.00;;;;;;6215762;23;20365;-58
2023/11/19 10:05:06;;;;;;;1.50;1.13;;;16.50;1.00;;;;;;6215075;23;20400;-56
2023/11/19 10:07:32;;;;;;;1.10;0.70;;;16.20;1.00;;;;;;6214312;23;20393;-59
2023/11/19 10:10:00;;;;;;;1.43;0.70;;;16.20;78.60;;;;;;6214557;23;20466;-59
2023/11/19 10:12:29;;;;;;;1.03;0.77;;;16.40;1.00;;;;;;6214997;23;20408;-57
2023/11/19 10:14:58;;;;;;;1.87;0.50;;;16.90;20.20;;;;;;6189052;23;20431;-54
2023/11/19 10:17:33;;;;;;;3.90;1.77;;;16.60;1.00;;;;;;6190143;23;20357;-55
2023/11/19 10:20:01;;;;;;;1.57;0.70;;;16.50;1.00;;;;;;6190836;23;20395;-55
2023/11/19 10:22:30;;;;;;;3.40;2.00;;;16.50;1.00;;;;;;6189642;23;20436;-58
2023/11/19 10:24:55;;;;;;;8.33;4.30;;;16.50;1.00;;;;;;6216132;23;20397;-55
2023/11/19 10:27:24;;;;;;;2.63;0.80;;;16.20;99.90;;;;;;6215839;23;20438;-57
2023/11/19 10:29:50;;;;;;;1.33;0.80;;;16.00;1.00;;;;;;6213775;23;20385;-57
2023/11/19 10:32:16;;;;;;;1.07;0.53;;;16.30;99.90;;;;;;6215144;23;20373;-57
2023/11/19 10:34:43;;;;;;;1.83;0.60;;;16.80;1.00;;;;;;6215726;23;20407;-60
2023/11/19 10:37:09;;;;;;;1.20;0.67;;;17.10;1.00;;;;;;6214217;23;20426;-56
2023/11/19 10:39:55;;;;;;;1.57;0.60;;;17.40;1.00;;;;;;6214377;23;20491;-58
2023/11/19 10:42:21;;;;;;;1.17;0.63;;;17.30;99.90;;;;;;6188786;23;20404;-55
2023/11/19 10:44:46;;;;;;;2.23;0.70;;;17.70;99.90;;;;;;6189110;23;20811;-56
2023/11/19 10:47:14;;;;;;;1.20;0.50;;;17.90;1.00;;;;;;6217702;23;20520;-56
2023/11/19 10:49:40;;;;;;;1.47;0.70;;;17.40;1.00;;;;;;6216097;23;20154;-56
2023/11/19 10:52:08;;;;;;;2.03;1.00;;;17.10;99.90;;;;;;6165931;23;20392;-56
2023/11/19 10:54:34;;;;;;;1.30;0.80;;;16.70;1.00;;;;;;6217141;23;20400;-57
2023/11/19 10:57:02;;;;;;;2.37;0.70;;;16.50;99.90;;;;;;6215845;23;20374;-57
2023/11/19 10:59:31;;;;;;;1.20;0.93;;;16.40;1.00;;;;;;6215452;23;20365;-57
2023/11/19 11:01:57;;;;;;;1.50;1.00;;;16.50;99.90;;;;;;6216105;23;20775;-56
2023/11/19 11:04:25;;;;;;;1.40;0.70;;;16.50;99.90;;;;;;6189241;23;20484;-56
2023/11/19 11:06:58;;;;;;;2.67;1.10;;;16.30;1.00;;;;;;6215539;23;20511;-57
2023/11/19 11:09:27;;;;;;;1.23;0.50;;;16.00;1.00;;;;;;6215306;23;20459;-56
2023/11/19 11:11:55;;;;;;;2.60;0.70;;;15.70;1.00;;;;;;6214136;23;20345;-58
2023/11/19 11:14:21;;;;;;;1.50;0.70;;;15.30;1.00;;;;;;6187876;23;20483;-59
2023/11/19 11:16:48;;;;;;;1.87;0.80;;;15.40;99.90;;;;;;6188171;23;20450;-57
2023/11/19 11:19:16;;;;;;;1.50;0.90;;;15.80;99.90;;;;;;6215437;23;20480;-58
2023/11/19 11:21:45;;;;;;;1.10;0.50;;;16.10;1.00;;;;;;6188571;23;20436;-59
2023/11/19 11:24:41;;;;;;;3.23;0.90;;;16.20;1.00;;;;;;6214741;23;20671;-57
2023/11/19 11:27:18;;;;;;;1.77;0.70;;;16.20;1.00;;;;;;6214656;23;20444;-58
2023/11/19 11:30:21;;;;;;;1.20;0.73;;;16.10;50.60;;;;;;6215768;23;20699;-56
2023/11/19 11:33:05;;;;;;;1.17;0.60;;;15.90;13.50;;;;;;6216298;23;20664;-56
2023/11/19 11:35:50;;;;;;;2.80;0.87;;;15.40;99.90;;;;;;6215287;23;20363;-56
2023/11/19 11:38:21;;;;;;;2.80;0.93;;;15.20;1.00;;;;;;6214697;23;20385;-57
2023/11/19 11:41:23;;;;;;;1.20;0.70;;;15.10;99.90;;;;;;6214119;23;20393;-57
2023/11/19 11:43:50;;;;;;;1.57;0.70;;;15.00;99.90;;;;;;6215077;23;21085;-56
2023/11/19 11:46:37;;;;;;;4.07;1.10;;;14.80;1.00;;;;;;6189096;23;20443;-58
2023/11/19 11:49:06;;;;;;;1.43;0.80;;;14.80;99.90;;;;;;6215265;23;20370;-57
2023/11/19 11:51:44;;;;;;;1.73;1.00;;;14.70;99.90;;;;;;6217591;23;20381;-55
2023/11/19 11:54:30;;;;;;;1.57;0.60;;;14.70;99.90;;;;;;6216997;23;20442;-56
2023/11/19 11:57:09;;;;;;;1.33;0.80;;;14.70;33.80;;;;;;6214638;23;20391;-59
2023/11/19 11:59:44;;;;;;;1.17;0.67;;;14.80;99.90;;;;;;6213932;23;20476;-56
2023/11/19 12:02:16;;;;;;;1.30;0.70;;;15.00;1.00;;;;;;6188892;23;20408;-58
2023/11/19 12:04:42;;;;;;;1.00;0.50;;;15.10;1.00;;;;;;6187843;23;20388;-58
2023/11/19 12:07:19;;;;;;;1.23;0.90;;;15.30;99.90;;;;;;6213657;23;20440;-57
2023/11/19 12:09:51;;;;;;;1.47;0.60;;;15.50;1.00;;;;;;6214395;23;20384;-57
2023/11/19 12:12:22;;;;;;;1.67;0.70;;;15.40;1.00;;;;;;6214885;23;20400;-57
2023/11/19 12:15:06;;;;;;;2.90;0.80;;;15.30;1.00;;;;;;6215093;23;20361;-57
2023/11/19 12:17:33;;;;;;;1.20;0.70;;;15.20;99.90;;;;;;6187540;23;20817;-57
2023/11/19 12:20:08;;;;;;;2.13;0.80;;;15.20;99.90;;;;;;6214292;23;20377;-58
2023/11/19 12:22:36;;;;;;;1.43;0.70;;;15.30;19.80;;;;;;6189719;23;20527;-59
2023/11/19 12:25:02;;;;;;;2.37;1.03;;;15.30;1.00;;;;;;6216321;23;20479;-56
2023/11/19 12:27:28;;;;;;;3.53;1.00;;;15.10;1.00;;;;;;6215948;23;20433;-58
2023/11/19 12:29:54;;;;;;;2.00;1.57;;;15.40;1.00;;;;;;6214691;23;20474;-58
2023/11/19 12:32:19;;;;;;;4.97;1.80;;;15.60;1.00;;;;;;6213651;23;20146;-57
2023/11/19 12:34:45;;;;;;;1.70;0.97;;;15.70;1.00;;;;;;6188990;23;21001;-57
2023/11/19 12:37:11;;;;;;;3.37;2.43;;;16.00;1.00;;;;;;6214502;23;20250;-63
2023/11/19 12:39:36;;;;;;;2.83;2.17;;;15.90;1.00;;;;;;6213055;23;20153;-59
2023/11/19 12:42:02;;;;;;;2.17;1.73;;;16.10;99.90;;;;;;6213219;23;20138;-58
2023/11/19 12:44:28;;;;;;;1.70;1.10;;;16.50;99.90;;;;;;6187860;23;20177;-57
2023/11/19 12:47:07;;;;;;;4.93;2.90;;;16.50;99.90;;;;;;6187264;23;20260;-57
2023/11/19 12:49:35;;;;;;;4.53;2.10;;;16.40;99.90;;;;;;6215538;23;20149;-55
2023/11/19 12:52:02;;;;;;;4.13;2.40;;;16.40;83.20;;;;;;6216712;23;20407;-56
2023/11/19 12:54:35;;;;;;;2.20;0.60;;;16.70;29.50;;;;;;6217256;23;20389;-57
2023/11/19 12:57:00;;;;;;;1.90;1.10;;;16.70;17.80;;;;;;6214734;23;20799;-56
2023/11/19 12:59:27;;;;;;;8.53;4.80;;;17.30;1.00;;;;;;6214949;23;20357;-56